Time;durP1;ratioP1;P1;durP2;ratioP2;P2;SDS_P1;SDS_P2;PMS_P1;PMS_P2;Temp;Humidity;BMP_temperature;BMP_pressure;BME280_temperature;BME280_humidity;BME280_pressure;Samples;Min_cycle;Max_cycle;Signal;HPM_P1;HPM_P2
2022/10/21 00:01:46;;;;;;;11.80;6.22;;;;;;;5.27;72.96;101298.78;1672394;85;21063;-73
2022/10/21 00:04:32;;;;;;;11.35;6.75;;;;;;;5.24;72.98;101289.75;1673206;85;21448;-73
2022/10/21 00:07:17;;;;;;;10.70;6.13;;;;;;;5.21;73.00;101287.13;1671804;84;21087;-75
2022/10/21 00:10:04;;;;;;;11.12;6.28;;;;;;;5.15;73.00;101281.08;1673499;85;21040;-75
2022/10/21 00:12:50;;;;;;;11.53;7.90;;;;;;;5.12;73.07;101267.79;1669922;84;20929;-75
2022/10/21 00:15:34;;;;;;;12.53;7.75;;;;;;;5.08;73.04;101260.02;1669184;85;21476;-75
2022/10/21 00:18:21;;;;;;;11.60;7.62;;;;;;;4.99;73.02;101247.49;1646485;85;20999;-75
2022/10/21 00:21:14;;;;;;;13.13;7.12;;;;;;;4.91;73.04;101252.91;1673818;84;20889;-75
2022/10/21 00:23:59;;;;;;;15.68;7.20;;;;;;;4.83;73.11;101241.66;1643688;85;20969;-75
2022/10/21 00:26:44;;;;;;;14.03;7.87;;;;;;;4.80;73.16;101232.64;1669454;85;20905;-73
2022/10/21 00:29:29;;;;;;;9.25;6.62;;;;;;;4.80;73.19;101234.34;1646280;87;20990;-73
2022/10/21 00:32:14;;;;;;;12.67;7.97;;;;;;;4.80;73.22;101235.62;1673297;85;20889;-73
2022/10/21 00:34:59;;;;;;;9.95;7.40;;;;;;;4.80;73.21;101230.50;1641186;86;21499;-73
2022/10/21 00:37:44;;;;;;;13.25;7.35;;;;;;;4.78;73.19;101230.89;1632495;87;21387;-73
2022/10/21 00:40:29;;;;;;;10.63;7.00;;;;;;;4.75;73.31;101230.41;1668948;84;20917;-73
2022/10/21 00:43:14;;;;;;;11.00;7.70;;;;;;;4.75;73.25;101228.27;1673130;85;20972;-73
2022/10/21 00:46:03;;;;;;;15.15;8.83;;;;;;;4.72;73.26;101224.38;1673970;85;21076;-73
2022/10/21 00:48:54;;;;;;;13.15;7.70;;;;;;;4.68;73.29;101220.89;1672980;85;21595;-73
2022/10/21 00:51:39;;;;;;;10.88;6.75;;;;;;;4.65;73.31;101203.81;1673161;85;21374;-73
2022/10/21 00:54:25;;;;;;;12.75;6.85;;;;;;;4.63;73.32;101204.20;1677376;84;20989;-73
2022/10/21 00:57:11;;;;;;;11.65;6.92;;;;;;;4.62;73.34;101208.88;1673107;85;21008;-73
2022/10/21 01:00:00;;;;;;;13.32;8.13;;;;;;;4.62;73.33;101202.47;1672053;85;21608;-74
2022/10/21 01:02:45;;;;;;;10.93;7.47;;;;;;;4.59;73.34;101196.02;1670978;85;21618;-74
2022/10/21 01:05:30;;;;;;;12.07;7.67;;;;;;;4.56;73.36;101199.80;1646340;85;21566;-74
2022/10/21 01:08:15;;;;;;;13.27;8.00;;;;;;;4.54;73.36;101212.13;1672229;85;21119;-74
2022/10/21 01:11:02;;;;;;;13.55;8.18;;;;;;;4.51;73.41;101206.53;1668272;85;21096;-74
2022/10/21 01:14:07;;;;;;;;;;;;;;;4.48;73.50;101192.81;1668269;85;21048;-74
2022/10/21 01:17:16;;;;;;;16.07;8.83;;;;;;;4.46;73.76;101185.52;1664662;84;21189;-74
2022/10/21 01:20:29;;;;;;;13.35;8.90;;;;;;;4.45;73.57;101174.42;1663845;85;21089;-74
2022/10/21 01:23:35;;;;;;;18.60;8.28;;;;;;;4.47;73.61;101162.92;1650331;84;21044;-74
2022/10/21 01:27:08;;;;;;;13.25;8.50;;;;;;;4.49;73.64;101167.23;1673603;85;21048;-74
2022/10/21 01:30:10;;;;;;;16.87;9.25;;;;;;;4.52;73.65;101170.27;1668622;85;21550;-74
2022/10/21 01:33:48;;;;;;;14.33;8.50;;;;;;;4.53;73.70;101169.43;1643680;87;21159;-74
2022/10/21 01:37:00;;;;;;;15.35;8.83;;;;;;;4.56;73.69;101169.48;1664446;85;21059;-74
2022/10/21 01:40:11;;;;;;;16.17;8.80;;;;;;;4.56;73.73;101178.03;1583401;88;21625;-74
2022/10/21 01:43:00;;;;;;;13.13;8.15;;;;;;;4.58;73.72;101183.19;1671171;85;21710;-74
2022/10/21 01:45:53;;;;;;;14.28;8.85;;;;;;;4.58;73.71;101184.46;1704056;82;21084;-74
2022/10/21 01:48:43;;;;;;;15.65;9.13;;;;;;;4.58;73.69;101172.52;1703359;84;21516;-74
2022/10/21 01:51:31;;;;;;;19.17;8.95;;;;;;;4.55;73.76;101154.54;1704557;84;21103;-74
2022/10/21 01:54:23;;;;;;;19.62;9.05;;;;;;;4.52;73.76;101151.06;1701224;82;21056;-74
2022/10/21 01:57:12;;;;;;;16.62;8.93;;;;;;;4.50;73.80;101147.19;1706923;82;21047;-74
2022/10/21 01:59:59;;;;;;;15.00;9.33;;;;;;;4.47;73.81;101135.62;1638736;85;21059;-74
2022/10/21 02:02:48;;;;;;;12.58;8.88;;;;;;;4.46;73.88;101131.33;1696725;84;21046;-74
2022/10/21 02:05:34;;;;;;;15.65;9.23;;;;;;;4.46;73.90;101140.71;1675294;84;21297;-74
2022/10/21 02:08:20;;;;;;;19.70;9.00;;;;;;;4.49;73.93;101131.80;1695005;84;21127;-74
2022/10/21 02:11:08;;;;;;;16.05;9.83;;;;;;;4.49;73.96;101136.50;1705631;84;21516;-74
2022/10/21 02:14:05;;;;;;;13.90;9.38;;;;;;;4.48;73.97;101125.82;1701896;82;21013;-74
2022/10/21 02:16:52;;;;;;;19.62;10.10;;;;;;;4.50;74.03;101121.59;1707146;84;20940;-74
2022/10/21 02:19:37;;;;;;;18.42;9.10;;;;;;;4.51;74.02;101127.16;1706210;84;20953;-74
2022/10/21 02:22:24;;;;;;;18.45;9.58;;;;;;;4.53;74.05;101128.45;1675360;85;20922;-74
2022/10/21 02:25:14;;;;;;;14.93;9.30;;;;;;;4.54;74.08;101131.05;1672857;84;21769;-74
2022/10/21 02:27:59;;;;;;;15.13;9.58;;;;;;;4.55;74.08;101129.34;1707389;84;21351;-74
2022/10/21 02:31:11;;;;;;;14.00;10.30;;;;;;;4.59;74.13;101131.13;1707141;84;21389;-74
2022/10/21 02:34:10;;;;;;;16.37;9.40;;;;;;;4.59;74.11;101129.84;1674213;85;20942;-74
2022/10/21 02:37:06;;;;;;;17.82;9.70;;;;;;;4.60;74.12;101129.87;1674175;85;20888;-74
2022/10/21 02:40:07;;;;;;;14.50;9.10;;;;;;;4.58;74.12;101119.16;1663995;85;27987;-74
2022/10/21 02:42:56;;;;;;;15.35;10.20;;;;;;;4.58;74.17;101116.59;1671214;84;20902;-74
2022/10/21 02:45:42;;;;;;;15.78;10.38;;;;;;;4.57;74.17;101111.03;1662902;86;20969;-74
2022/10/21 02:48:27;;;;;;;13.65;8.88;;;;;;;4.56;74.23;101114.42;1650478;86;20917;-74
2022/10/21 02:51:13;;;;;;;14.38;9.13;;;;;;;4.56;74.26;101108.89;1658912;86;20906;-74
2022/10/21 02:53:58;;;;;;;15.32;9.50;;;;;;;4.59;74.30;101108.94;1665116;84;20949;-74
2022/10/21 02:56:42;;;;;;;17.87;10.58;;;;;;;4.58;74.32;101105.93;1659117;85;21053;-74
2022/10/21 02:59:28;;;;;;;17.23;8.25;;;;;;;4.62;74.33;101105.56;1657819;86;21092;-74
2022/10/21 03:02:13;;;;;;;18.55;10.18;;;;;;;4.63;74.33;101100.47;1652175;86;21100;-74
2022/10/21 03:04:58;;;;;;;14.35;10.00;;;;;;;4.65;74.39;101103.05;1661945;86;21519;-74
2022/10/21 03:07:43;;;;;;;17.77;9.78;;;;;;;4.70;74.40;101099.25;1660302;84;21060;-74
2022/10/21 03:10:29;;;;;;;16.15;9.80;;;;;;;4.71;74.37;101092.87;1653612;84;21037;-74
2022/10/21 03:13:14;;;;;;;15.08;10.20;;;;;;;4.72;74.43;101097.58;1662084;85;21070;-74
2022/10/21 03:15:59;;;;;;;15.60;10.10;;;;;;;4.76;74.44;101100.63;1651426;84;21762;-74
2022/10/21 03:18:44;;;;;;;12.78;10.53;;;;;;;4.77;74.45;101101.93;1659036;86;21093;-74
2022/10/21 03:21:29;;;;;;;17.62;11.55;;;;;;;4.81;74.44;101097.72;1659278;86;21073;-74
2022/10/21 03:24:14;;;;;;;16.35;9.90;;;;;;;4.82;74.48;101100.30;1665871;84;21044;-74
2022/10/21 03:26:59;;;;;;;14.58;10.23;;;;;;;4.85;74.46;101098.20;1658337;84;21017;-74
2022/10/21 03:29:45;;;;;;;15.10;9.73;;;;;;;4.86;74.48;101093.52;1658442;86;20973;-74
2022/10/21 03:32:30;;;;;;;14.60;10.13;;;;;;;4.87;74.51;101097.81;1659674;86;21499;-74
2022/10/21 03:35:15;;;;;;;14.47;9.83;;;;;;;4.89;74.52;101080.76;1653318;85;21112;-74
2022/10/21 03:38:00;;;;;;;16.75;10.32;;;;;;;4.91;74.54;101081.64;1662463;84;21061;-74
2022/10/21 03:40:45;;;;;;;18.30;10.38;;;;;;;4.89;74.53;101070.51;1656272;85;21081;-74
2022/10/21 03:43:30;;;;;;;12.68;9.80;;;;;;;4.85;74.56;101074.73;1663818;84;21056;-74
2022/10/21 03:46:15;;;;;;;16.85;11.25;;;;;;;4.86;74.60;101067.91;1664157;85;21603;-74
2022/10/21 03:49:00;;;;;;;18.82;11.33;;;;;;;4.87;74.62;101064.50;1659146;84;21500;-74
2022/10/21 03:51:46;;;;;;;13.05;10.53;;;;;;;4.87;74.64;101061.52;1667722;84;21561;-74
2022/10/21 03:54:31;;;;;;;20.35;10.90;;;;;;;4.89;74.65;101061.13;1675270;84;21309;-74
2022/10/21 03:57:16;;;;;;;16.95;11.12;;;;;;;4.91;74.67;101055.59;1639127;87;21054;-73
2022/10/21 04:00:01;;;;;;;18.70;11.33;;;;;;;4.92;74.69;101048.77;1661512;85;20992;-73
2022/10/21 04:02:46;;;;;;;18.52;11.53;;;;;;;4.93;74.69;101047.94;1673018;85;21004;-73
2022/10/21 04:05:31;;;;;;;18.65;11.33;;;;;;;4.93;74.73;101050.50;1671449;85;21123;-73
2022/10/21 04:08:17;;;;;;;16.87;11.30;;;;;;;4.93;74.74;101044.95;1667093;85;21487;-73
2022/10/21 04:11:02;;;;;;;20.00;11.50;;;;;;;4.95;74.75;101036.00;1666979;85;21055;-73
2022/10/21 04:13:47;;;;;;;23.10;12.07;;;;;;;4.95;74.74;101029.17;1662625;85;21454;-73
2022/10/21 04:16:33;;;;;;;19.05;11.80;;;;;;;4.97;74.77;101027.91;1673265;85;21028;-73
2022/10/21 04:19:19;;;;;;;17.50;11.18;;;;;;;4.99;74.79;101028.80;1667846;84;21079;-78
2022/10/21 04:22:04;;;;;;;17.77;11.45;;;;;;;4.99;74.82;101020.69;1640938;85;21075;-78
2022/10/21 04:24:50;;;;;;;15.60;10.90;;;;;;;5.02;74.84;101010.04;1670736;84;21623;-74
2022/10/21 04:27:35;;;;;;;17.05;11.83;;;;;;;5.03;74.81;101011.77;1641947;85;21073;-74
2022/10/21 04:30:20;;;;;;;17.65;11.63;;;;;;;5.04;74.87;101004.09;1671199;84;21096;-74
2022/10/21 04:33:05;;;;;;;17.02;12.03;;;;;;;5.04;74.91;100995.12;1668931;84;21615;-77
2022/10/21 04:35:53;;;;;;;20.45;12.68;;;;;;;5.04;74.93;100978.88;1634924;87;21067;-77
2022/10/21 04:38:37;;;;;;;17.12;11.85;;;;;;;5.04;74.93;100976.32;1665297;85;21036;-77
2022/10/21 04:41:23;;;;;;;18.05;11.88;;;;;;;5.05;74.97;100971.21;1673845;84;21314;-77
2022/10/21 04:44:08;;;;;;;19.77;12.20;;;;;;;5.05;75.01;100953.70;1659370;84;21092;-77
2022/10/21 04:46:53;;;;;;;18.40;12.43;;;;;;;5.03;74.99;100938.72;1652760;86;21052;-77
2022/10/21 04:49:39;;;;;;;22.50;12.05;;;;;;;5.03;75.01;100933.17;1650906;86;21085;-76
2022/10/21 04:52:24;;;;;;;22.75;12.43;;;;;;;5.06;75.08;100940.90;1653156;84;20977;-76
2022/10/21 04:55:09;;;;;;;18.80;12.00;;;;;;;5.11;75.11;100947.36;1663418;84;21045;-76
2022/10/21 04:57:54;;;;;;;22.90;11.70;;;;;;;5.13;75.10;100939.27;1654777;84;21068;-76
2022/10/21 05:00:39;;;;;;;22.10;12.20;;;;;;;5.16;75.12;100937.59;1654768;84;21072;-76
2022/10/21 05:03:24;;;;;;;21.85;12.00;;;;;;;5.18;75.14;100935.91;1651807;86;21064;-76
2022/10/21 05:06:09;;;;;;;18.95;12.07;;;;;;;5.21;75.16;100938.48;1652602;86;21052;-76
2022/10/21 05:08:54;;;;;;;18.73;12.07;;;;;;;5.23;75.12;100939.78;1661088;85;21079;-76
2022/10/21 05:11:39;;;;;;;21.80;12.40;;;;;;;5.26;75.17;100953.48;1659888;86;21072;-76
2022/10/21 05:14:24;;;;;;;14.68;11.65;;;;;;;5.29;75.18;100947.53;1660890;85;21528;-76
2022/10/21 05:17:10;;;;;;;18.65;11.95;;;;;;;5.31;75.20;100952.26;1658921;84;21124;-76
2022/10/21 05:19:55;;;;;;;20.43;12.10;;;;;;;5.34;75.20;100947.16;1660618;84;21056;-76
2022/10/21 05:22:40;;;;;;;17.02;12.43;;;;;;;5.37;75.23;100938.64;1661490;84;21104;-76
2022/10/21 05:25:25;;;;;;;23.00;13.38;;;;;;;5.37;75.24;100933.52;1651565;86;21864;-75
2022/10/21 05:28:11;;;;;;;20.80;13.10;;;;;;;5.37;75.29;100936.08;1661318;84;21103;-76
2022/10/21 05:30:56;;;;;;;18.75;12.68;;;;;;;5.40;75.35;100934.41;1657789;84;21517;-76
2022/10/21 05:33:41;;;;;;;20.97;12.70;;;;;;;5.43;75.33;100920.76;1661288;86;21041;-76
2022/10/21 05:36:26;;;;;;;18.77;13.53;;;;;;;5.45;75.32;100912.66;1655511;84;21060;-76
2022/10/21 05:39:11;;;;;;;18.35;13.13;;;;;;;5.45;75.37;100908.39;1657707;84;21116;-76
2022/10/21 05:41:56;;;;;;;19.87;12.80;;;;;;;5.48;75.40;100901.14;1658406;84;21120;-76
2022/10/21 05:44:41;;;;;;;17.77;12.98;;;;;;;5.51;75.45;100892.20;1646719;84;21052;-76
2022/10/21 05:47:26;;;;;;;21.95;14.18;;;;;;;5.53;75.42;100893.94;1656957;84;21040;-76
2022/10/21 05:50:13;;;;;;;20.60;13.55;;;;;;;5.57;75.47;100879.42;1662741;84;21117;-76
2022/10/21 05:52:57;;;;;;;25.85;13.03;;;;;;;5.59;75.47;100870.05;1656502;84;20929;-76
2022/10/21 05:55:42;;;;;;;17.75;12.73;;;;;;;5.59;75.50;100859.78;1661455;84;21561;-76
2022/10/21 05:58:29;;;;;;;23.12;13.90;;;;;;;5.61;75.51;100849.11;1657334;84;20898;-76
2022/10/21 06:01:14;;;;;;;21.57;14.70;;;;;;;5.62;75.52;100845.70;1656522;84;20905;-76
2022/10/21 06:03:58;;;;;;;21.05;14.03;;;;;;;5.63;75.56;100842.28;1662952;84;20890;-76
2022/10/21 06:06:43;;;;;;;20.50;14.55;;;;;;;5.65;75.60;100829.91;1650372;84;20953;-76
2022/10/21 06:09:28;;;;;;;26.73;15.20;;;;;;;5.70;75.63;100836.36;1663011;84;20947;-76
2022/10/21 06:12:13;;;;;;;21.60;14.75;;;;;;;5.72;75.63;100829.50;1669262;84;20913;-76
2022/10/21 06:14:58;;;;;;;21.52;14.68;;;;;;;5.76;75.64;100826.53;1663218;84;20898;-76
2022/10/21 06:17:43;;;;;;;20.17;14.83;;;;;;;5.80;75.67;100825.28;1652326;84;20930;-76
2022/10/21 06:20:29;;;;;;;28.85;14.58;;;;;;;5.82;75.68;100805.63;1658545;84;21430;-76
2022/10/21 06:23:15;;;;;;;22.03;13.67;;;;;;;5.83;75.69;100799.64;1565805;83;5001453;-76
2022/10/21 06:26:07;;;;;;;18.17;13.40;;;;;;;5.84;75.70;100785.10;1654533;84;20954;-76
2022/10/21 06:28:52;;;;;;;23.32;13.83;;;;;;;5.86;75.77;100786.83;1661433;84;21398;-76
2022/10/21 06:31:37;;;;;;;19.67;13.40;;;;;;;5.89;75.77;100779.61;1663131;84;20950;-76
2022/10/21 06:34:22;;;;;;;22.73;13.83;;;;;;;5.91;75.75;100782.61;1647858;84;20929;-76
2022/10/21 06:37:07;;;;;;;18.60;13.50;;;;;;;5.95;75.80;100792.47;1660796;84;20965;-76
2022/10/21 06:39:52;;;;;;;19.98;12.93;;;;;;;5.97;75.82;100809.59;1662202;84;21827;-76
2022/10/21 06:42:37;;;;;;;23.05;13.85;;;;;;;6.02;75.81;100813.48;1663826;84;20913;-76
2022/10/21 06:45:22;;;;;;;21.55;13.40;;;;;;;6.06;75.82;100810.08;1683204;82;20949;-76
2022/10/21 06:48:06;;;;;;;23.62;14.07;;;;;;;6.08;75.87;100804.95;1692717;82;20918;-76
2022/10/21 06:51:02;;;;;;;18.70;11.73;;;;;;;6.10;75.88;100793.84;1687020;82;21395;-76
2022/10/21 06:53:54;;;;;;;17.98;12.78;;;;;;;6.10;75.86;100778.86;1688259;82;20985;-76
2022/10/21 06:56:39;;;;;;;18.75;12.05;;;;;;;6.14;75.93;100815.25;1689864;82;20957;-76
2022/10/21 06:59:24;;;;;;;19.87;13.00;;;;;;;6.20;75.99;100831.55;1694926;82;20922;-76
2022/10/21 07:02:09;;;;;;;23.05;13.20;;;;;;;6.26;76.00;100852.09;1696228;82;20979;-76
2022/10/21 07:04:56;;;;;;;18.70;13.53;;;;;;;6.33;76.02;100863.69;1616575;87;20976;-76
2022/10/21 07:07:41;;;;;;;17.55;13.03;;;;;;;6.38;76.01;100854.30;1693417;82;20929;-76
2022/10/21 07:10:25;;;;;;;18.12;12.03;;;;;;;6.42;76.00;100870.16;1688612;82;21308;-76
2022/10/21 07:13:11;;;;;;;19.95;13.75;;;;;;;6.47;76.06;100877.03;1696789;82;20921;-76
2022/10/21 07:16:12;;;;;;;21.27;13.65;;;;;;;6.52;76.07;100874.06;1690611;82;20921;-76
2022/10/21 07:18:57;;;;;;;18.77;12.15;;;;;;;6.57;76.09;100895.49;1688235;82;20957;-76
2022/10/21 07:21:43;;;;;;;21.62;14.15;;;;;;;6.62;76.09;100887.38;1696003;82;20934;-76
2022/10/21 07:24:27;;;;;;;26.23;15.63;;;;;;;6.64;76.04;100876.69;1691079;82;21501;-76
2022/10/21 07:27:13;;;;;;;22.35;13.85;;;;;;;6.69;76.08;100877.13;1690239;82;21386;-76
2022/10/21 07:29:57;;;;;;;20.97;14.25;;;;;;;6.73;76.07;100884.00;1687749;82;20973;-76
2022/10/21 07:32:42;;;;;;;25.08;15.38;;;;;;;6.75;76.12;100893.44;1684451;82;21755;-76
2022/10/21 07:35:27;;;;;;;19.92;13.62;;;;;;;6.79;76.15;100884.00;1634044;86;21379;-76
2022/10/21 07:38:12;;;;;;;21.87;15.13;;;;;;;6.83;76.13;100879.30;1691649;82;20957;-76
2022/10/21 07:40:58;;;;;;;22.98;14.78;;;;;;;6.86;76.13;100885.73;1696892;82;20917;-76
2022/10/21 07:43:43;;;;;;;23.87;14.85;;;;;;;6.88;76.16;100875.03;1680627;82;20961;-76
2022/10/21 07:46:28;;;;;;;24.10;15.50;;;;;;;6.91;76.15;100879.76;1662140;84;21370;-76
2022/10/21 07:49:14;;;;;;;20.40;14.43;;;;;;;6.95;76.21;100882.77;1662382;84;21518;-76
2022/10/21 07:51:59;;;;;;;26.55;14.85;;;;;;;7.02;76.24;100884.07;1659488;84;21068;-76
2022/10/21 07:54:44;;;;;;;19.52;13.62;;;;;;;7.06;76.24;100874.23;1653453;84;21112;-76
2022/10/21 07:57:29;;;;;;;21.33;13.68;;;;;;;7.11;76.27;100874.67;1659353;84;21060;-76
2022/10/21 08:00:14;;;;;;;18.85;13.38;;;;;;;7.16;76.26;100875.97;1660595;84;21641;-76
2022/10/21 08:02:59;;;;;;;22.27;14.68;;;;;;;7.19;76.26;100869.12;1662328;84;21135;-76
2022/10/21 08:05:45;;;;;;;22.17;14.75;;;;;;;7.23;76.26;100878.98;1656490;86;21075;-76
2022/10/21 08:08:31;;;;;;;26.15;14.60;;;;;;;7.26;76.29;100868.28;1654399;84;21327;-76
2022/10/21 08:11:28;;;;;;;21.77;15.10;;;;;;;7.29;76.29;100875.11;1659919;84;21112;-76
2022/10/21 08:14:15;;;;;;;22.13;14.23;;;;;;;7.30;76.30;100866.11;1656415;84;21036;-76
2022/10/21 08:17:00;;;;;;;22.20;13.75;;;;;;;7.34;76.32;100869.55;1659312;84;21060;-76
2022/10/21 08:19:45;;;;;;;24.43;13.80;;;;;;;7.37;76.32;100859.69;1652130;84;21062;-76
2022/10/21 08:22:31;;;;;;;24.67;14.40;;;;;;;7.41;76.33;100848.55;1651785;84;21029;-76
2022/10/21 08:25:16;;;;;;;20.80;14.98;;;;;;;7.43;76.33;100854.55;1663380;84;21478;-75
2022/10/21 08:28:02;;;;;;;21.27;13.95;;;;;;;7.47;76.32;100853.69;1661768;84;20932;-76
2022/10/21 08:30:47;;;;;;;25.30;14.13;;;;;;;7.51;76.33;100856.27;1655881;84;20921;-76
2022/10/21 08:33:32;;;;;;;20.80;13.40;;;;;;;7.54;76.32;100854.98;1658654;84;20941;-76
2022/10/21 08:36:24;;;;;;;23.47;13.30;;;;;;;7.55;76.31;100862.27;1660543;84;20941;-76
2022/10/21 08:39:09;;;;;;;17.50;12.65;;;;;;;7.56;76.33;100866.13;1658665;84;20918;-76
2022/10/21 08:42:15;;;;;;;22.98;13.85;;;;;;;7.60;76.35;100867.84;1657220;84;21033;-76
2022/10/21 08:45:05;;;;;;;19.85;14.35;;;;;;;7.64;76.38;100873.86;1663878;84;21379;-76
2022/10/21 08:47:54;;;;;;;21.17;13.70;;;;;;;7.69;76.38;100867.42;1674973;82;21035;-76
2022/10/21 08:50:49;;;;;;;21.65;14.40;;;;;;;7.71;76.38;100873.00;1673216;84;20972;-76
2022/10/21 08:53:46;;;;;;;20.52;13.98;;;;;;;7.73;76.39;100866.56;1670369;84;20980;-76
2022/10/21 08:56:31;;;;;;;22.02;14.05;;;;;;;7.76;76.41;100863.98;1649234;84;21115;-76
2022/10/21 08:59:21;;;;;;;20.77;14.53;;;;;;;7.79;76.40;100862.70;1672746;84;21591;-76
2022/10/21 09:02:52;;;;;;;19.27;14.68;;;;;;;7.80;76.43;100848.97;1641368;85;21075;-76
2022/10/21 09:05:58;;;;;;;19.17;13.93;;;;;;;7.81;76.46;100842.50;1667824;84;21066;-76
2022/10/21 09:09:03;;;;;;;23.00;15.07;;;;;;;7.83;76.42;100836.92;1662997;84;21035;-76
2022/10/21 09:12:14;;;;;;;20.43;14.18;;;;;;;7.76;76.46;100819.80;1670428;84;22379;-76
2022/10/21 09:15:51;;;;;;;22.90;14.30;;;;;;;7.87;76.49;100830.91;1668701;84;21096;-76
2022/10/21 09:19:12;;;;;;;22.30;14.00;;;;;;;7.90;76.46;100830.05;1670907;84;21072;-76
2022/10/21 09:22:34;;;;;;;23.25;14.78;;;;;;;7.98;76.51;100819.31;1671835;84;21096;-76
2022/10/21 09:25:49;;;;;;;18.75;13.20;;;;;;;8.03;76.45;100816.72;1673187;84;21520;-76
2022/10/21 09:28:34;;;;;;;22.62;13.90;;;;;;;8.09;76.47;100814.13;1640609;85;21079;-76
2022/10/21 09:31:20;;;;;;;21.97;13.50;;;;;;;8.14;76.48;100797.81;1656809;84;21048;-76
2022/10/21 09:34:17;;;;;;;19.37;13.45;;;;;;;8.20;76.49;100791.78;1664733;84;21119;-76
2022/10/21 09:37:06;;;;;;;23.07;14.60;;;;;;;8.25;76.47;100790.05;1535989;85;5001186;-76
2022/10/21 09:40:08;;;;;;;23.20;13.30;;;;;;;8.31;76.49;100783.58;1607235;87;21411;-76
2022/10/21 09:42:58;;;;;;;18.52;13.53;;;;;;;8.38;76.50;100790.42;1610502;87;21088;-76
2022/10/21 09:45:46;;;;;;;18.25;12.85;;;;;;;8.43;76.47;100788.69;1604461;88;21686;-76
2022/10/21 09:48:51;;;;;;;16.57;13.03;;;;;;;8.51;76.49;100786.08;1602624;88;20998;-76
2022/10/21 09:51:39;;;;;;;18.70;13.48;;;;;;;8.62;76.58;100789.46;1599283;88;20953;-76
2022/10/21 09:54:27;;;;;;;17.23;13.50;;;;;;;8.80;76.59;100798.81;1606950;88;20969;-76
2022/10/21 09:57:26;;;;;;;14.90;12.30;;;;;;;8.93;76.54;100799.99;1570928;88;20993;-76
2022/10/21 10:00:11;;;;;;;17.27;13.20;;;;;;;9.08;76.55;100806.77;1608925;86;20993;-76
2022/10/21 10:02:56;;;;;;;22.13;12.82;;;;;;;9.28;76.59;100811.80;1613546;87;21006;-76
2022/10/21 10:05:48;;;;;;;22.30;13.45;;;;;;;9.42;76.53;100793.59;1612102;87;21406;-76
2022/10/21 10:08:46;;;;;;;17.98;12.68;;;;;;;9.53;76.52;100794.36;1619760;86;21001;-76
2022/10/21 10:11:30;;;;;;;22.75;12.75;;;;;;;9.58;76.42;100788.28;1612815;88;21442;-76
2022/10/21 10:14:32;;;;;;;18.27;12.23;;;;;;;9.67;76.53;100791.66;1611297;88;21014;-76
2022/10/21 10:17:38;;;;;;;21.55;12.95;;;;;;;9.77;76.56;100781.22;1612062;87;21550;-77
2022/10/21 10:20:23;;;;;;;;;;;;;;;9.85;76.52;100775.55;1614686;87;21434;-77
2022/10/21 10:23:12;;;;;;;20.23;12.70;;;;;;;9.91;76.34;100768.99;1613062;87;20119;-77
2022/10/21 10:25:57;;;;;;;18.27;13.08;;;;;;;10.02;76.52;100761.56;1610407;88;20970;-76
2022/10/21 10:28:50;;;;;;;15.00;12.63;;;;;;;10.11;76.55;100749.83;1609397;87;20949;-76
2022/10/21 10:31:36;;;;;;;16.80;12.13;;;;;;;10.20;76.52;100747.17;1616686;86;21452;-76
2022/10/21 10:34:37;;;;;;;18.60;13.10;;;;;;;10.24;76.40;100738.51;1611424;87;20946;-76
2022/10/21 10:37:26;;;;;;;19.42;13.00;;;;;;;10.30;76.44;100733.70;1610494;87;20991;-76
2022/10/21 10:40:19;;;;;;;18.87;12.73;;;;;;;10.35;76.45;100726.74;1605754;87;20986;-76
2022/10/21 10:43:12;;;;;;;17.00;12.88;;;;;;;10.44;76.50;100711.08;1612228;87;21125;-76
2022/10/21 10:46:01;;;;;;;17.15;12.40;;;;;;;10.49;76.44;100695.92;1608285;87;21073;-76
2022/10/21 10:48:51;;;;;;;17.42;12.73;;;;;;;10.53;76.38;100698.02;1613458;88;21062;-76
2022/10/21 10:51:36;;;;;;;20.95;12.43;;;;;;;10.57;76.46;100689.34;1638645;85;21565;-77
2022/10/21 10:54:27;;;;;;;18.85;13.55;;;;;;;10.64;76.44;100688.81;1636494;85;21513;-77
2022/10/21 10:57:25;;;;;;;17.42;12.65;;;;;;;10.69;76.42;100701.24;1635977;85;21110;-77
2022/10/21 11:00:20;;;;;;;18.40;12.50;;;;;;;10.74;76.39;100702.03;1635982;85;21071;-76
2022/10/21 11:03:10;;;;;;;15.72;12.60;;;;;;;10.83;76.45;100702.74;1613576;87;21452;-76
2022/10/21 11:06:06;;;;;;;18.95;13.08;;;;;;;10.92;76.41;100715.94;1637231;85;21622;-76
2022/10/21 11:08:57;;;;;;;18.23;13.00;;;;;;;11.03;76.39;100714.48;1635933;85;21038;-76
2022/10/21 11:11:48;;;;;;;19.73;14.28;;;;;;;11.15;76.29;100716.42;1637098;85;21130;-76
2022/10/21 11:14:34;;;;;;;23.60;12.63;;;;;;;11.23;76.33;100711.13;1619678;86;21079;-76
2022/10/21 11:17:25;;;;;;;21.33;12.85;;;;;;;11.28;76.25;100708.02;1636883;85;21085;-76
2022/10/21 11:20:42;;;;;;;17.02;12.47;;;;;;;11.32;76.19;100707.08;1639722;85;50432;-76
2022/10/21 11:23:58;;;;;;;18.80;12.95;;;;;;;11.35;76.22;100708.77;1626830;85;21110;-76
2022/10/21 11:26:58;;;;;;;;;;;;;;;11.40;76.18;100696.59;1638215;85;21740;-76
2022/10/21 11:30:01;;;;;;;20.45;12.43;;;;;;;11.48;76.00;100695.98;1635046;85;20275;-77
2022/10/21 11:33:27;;;;;;;18.98;12.93;;;;;;;11.61;76.25;100693.14;1632565;85;21123;-77
2022/10/21 11:36:40;;;;;;;19.67;13.30;;;;;;;11.77;76.24;100691.14;1625107;85;21041;-76
2022/10/21 11:42:20;;;;;;;19.70;13.90;;;;;;;12.00;76.10;100675.55;1822211;75;22753;-76
2022/10/21 11:45:28;;;;;;;13.50;11.50;;;;;;;12.01;76.06;100676.80;1798797;77;21448;-76
2022/10/21 11:48:22;;;;;;;16.48;12.15;;;;;;;12.05;75.98;100679.75;1802115;77;20999;-76
2022/10/21 11:51:36;;;;;;;16.60;12.43;;;;;;;12.04;75.85;100664.23;1806286;77;21519;-76
2022/10/21 11:55:03;;;;;;;20.85;12.63;;;;;;;12.02;75.86;100649.16;1807294;78;20983;-76
2022/10/21 11:58:16;;;;;;;23.27;12.25;;;;;;;12.01;75.84;100657.81;1799700;77;20987;-76
2022/10/21 12:01:22;;;;;;;21.75;12.37;;;;;;;11.97;75.78;100660.06;1801359;77;20987;-76
2022/10/21 12:04:36;;;;;;;16.32;12.25;;;;;;;11.92;75.73;100656.30;1807565;77;20988;-76
2022/10/21 12:07:35;;;;;;;17.00;12.50;;;;;;;11.87;75.73;100648.62;1803243;77;21480;-76
2022/10/21 12:10:49;;;;;;;20.97;12.63;;;;;;;11.81;75.69;100655.22;1801027;78;21663;-76
2022/10/21 12:13:44;;;;;;;20.35;13.00;;;;;;;11.79;75.69;100645.33;1812515;77;20983;-76
2022/10/21 12:16:32;;;;;;;17.55;12.25;;;;;;;11.78;75.64;100633.70;1809852;78;21375;-76
2022/10/21 12:19:17;;;;;;;15.53;12.20;;;;;;;11.76;75.62;100631.11;1806609;77;21036;-76
2022/10/21 12:22:03;;;;;;;18.43;12.23;;;;;;;11.77;75.65;100621.20;1802367;78;20971;-76
2022/10/21 12:25:03;;;;;;;18.85;11.63;;;;;;;11.79;75.62;100618.12;1806878;77;21385;-76
2022/10/21 12:28:27;;;;;;;17.57;11.90;;;;;;;11.79;75.54;100607.77;1782420;80;21443;-76
2022/10/21 12:31:54;;;;;;;16.87;11.15;;;;;;;11.76;75.45;100584.92;1766135;80;21014;-76
2022/10/21 12:34:39;;;;;;;19.25;12.37;;;;;;;11.72;75.43;100586.73;1766392;78;21082;-76
2022/10/21 12:37:53;;;;;;;17.32;11.78;;;;;;;11.70;75.38;100575.98;1785207;78;21035;-76
2022/10/21 12:40:39;;;;;;;13.68;10.98;;;;;;;11.68;75.37;100579.91;1774029;79;21011;-76
2022/10/21 12:43:27;;;;;;;14.25;11.08;;;;;;;11.67;75.37;100593.74;1785258;80;21064;-76
2022/10/21 12:46:12;;;;;;;18.90;12.53;;;;;;;11.68;75.37;100601.07;1779549;78;21071;-76
2022/10/21 12:49:01;;;;;;;15.95;11.70;;;;;;;11.69;75.30;100594.56;1774939;78;21030;-76
2022/10/21 12:52:14;;;;;;;16.90;12.15;;;;;;;11.69;75.31;100597.16;1775113;78;21035;-76
2022/10/21 12:55:03;;;;;;;18.02;12.20;;;;;;;11.69;75.30;100597.16;1746954;80;21063;-77
2022/10/21 12:58:02;;;;;;;19.48;12.25;;;;;;;11.67;75.22;100605.84;1774072;78;21658;-77
2022/10/21 13:00:54;;;;;;;16.05;11.90;;;;;;;11.65;75.18;100597.25;1775750;78;21062;-77
2022/10/21 13:03:50;;;;;;;15.45;11.65;;;;;;;11.62;75.16;100590.39;1771263;80;21030;-77
2022/10/21 13:06:54;;;;;;;16.05;11.43;;;;;;;11.63;75.20;100584.77;1773633;80;21019;-77
2022/10/21 13:09:45;;;;;;;18.23;11.33;;;;;;;11.63;75.20;100592.09;1773116;78;21042;-77
2022/10/21 13:12:32;;;;;;;14.47;11.30;;;;;;;11.62;75.16;100592.98;1771925;79;21436;-77